sensor_id;sensor_type;location;lat;lon;timestamp;P1;durP1;ratioP1;P2;durP2;ratioP2
7587;SDS011;3835;48.850;8.938;2023-04-01T00:00:51;11.27;;;10.57;;
7587;SDS011;3835;48.850;8.938;2023-04-01T00:03:20;11.73;;;11.03;;
7587;SDS011;3835;48.850;8.938;2023-04-01T00:05:49;11.37;;;10.73;;
7587;SDS011;3835;48.850;8.938;2023-04-01T00:08:18;11.17;;;10.57;;
7587;SDS011;3835;48.850;8.938;2023-04-01T00:10:46;11.67;;;11.10;;
7587;SDS011;3835;48.850;8.938;2023-04-01T00:13:14;11.83;;;11.23;;
7587;SDS011;3835;48.850;8.938;2023-04-01T00:15:43;11.10;;;10.47;;
7587;SDS011;3835;48.850;8.938;2023-04-01T00:18:11;11.33;;;10.83;;
7587;SDS011;3835;48.850;8.938;2023-04-01T00:20:39;11.60;;;10.93;;
7587;SDS011;3835;48.850;8.938;2023-04-01T00:23:10;11.70;;;11.20;;
7587;SDS011;3835;48.850;8.938;2023-04-01T00:25:40;12.00;;;11.40;;
7587;SDS011;3835;48.850;8.938;2023-04-01T00:28:07;12.37;;;11.67;;
7587;SDS011;3835;48.850;8.938;2023-04-01T00:30:35;11.47;;;10.93;;
7587;SDS011;3835;48.850;8.938;2023-04-01T00:33:03;11.47;;;10.87;;
7587;SDS011;3835;48.850;8.938;2023-04-01T00:35:31;11.63;;;11.03;;
7587;SDS011;3835;48.850;8.938;2023-04-01T00:38:00;12.50;;;11.87;;
7587;SDS011;3835;48.850;8.938;2023-04-01T00:40:29;11.83;;;11.23;;
7587;SDS011;3835;48.850;8.938;2023-04-01T00:43:00;12.90;;;12.00;;
7587;SDS011;3835;48.850;8.938;2023-04-01T00:45:30;11.17;;;10.47;;
7587;SDS011;3835;48.850;8.938;2023-04-01T00:48:02;10.97;;;10.47;;
7587;SDS011;3835;48.850;8.938;2023-04-01T00:50:33;11.27;;;10.47;;
7587;SDS011;3835;48.850;8.938;2023-04-01T00:53:03;11.63;;;10.87;;
7587;SDS011;3835;48.850;8.938;2023-04-01T00:55:32;11.07;;;10.23;;
7587;SDS011;3835;48.850;8.938;2023-04-01T00:58:05;10.87;;;10.37;;
7587;SDS011;3835;48.850;8.938;2023-04-01T01:00:37;11.30;;;10.70;;
7587;SDS011;3835;48.850;8.938;2023-04-01T01:03:05;11.50;;;10.90;;
7587;SDS011;3835;48.850;8.938;2023-04-01T01:05:50;9.60;;;9.17;;
7587;SDS011;3835;48.850;8.938;2023-04-01T01:08:49;10.40;;;9.80;;
7587;SDS011;3835;48.850;8.938;2023-04-01T01:11:31;10.77;;;10.27;;
7587;SDS011;3835;48.850;8.938;2023-04-01T01:14:07;11.13;;;10.63;;
7587;SDS011;3835;48.850;8.938;2023-04-01T01:16:40;10.93;;;10.43;;
7587;SDS011;3835;48.850;8.938;2023-04-01T01:19:17;11.63;;;11.03;;
7587;SDS011;3835;48.850;8.938;2023-04-01T01:22:05;11.60;;;11.00;;
7587;SDS011;3835;48.850;8.938;2023-04-01T01:24:56;11.63;;;11.07;;
7587;SDS011;3835;48.850;8.938;2023-04-01T01:27:41;11.03;;;10.53;;
7587;SDS011;3835;48.850;8.938;2023-04-01T01:30:20;12.10;;;11.33;;
7587;SDS011;3835;48.850;8.938;2023-04-01T01:33:09;11.60;;;11.10;;
7587;SDS011;3835;48.850;8.938;2023-04-01T01:35:47;11.13;;;10.53;;
7587;SDS011;3835;48.850;8.938;2023-04-01T01:38:17;11.83;;;11.23;;
7587;SDS011;3835;48.850;8.938;2023-04-01T01:40:48;12.17;;;11.63;;
7587;SDS011;3835;48.850;8.938;2023-04-01T01:43:21;12.03;;;11.43;;
7587;SDS011;3835;48.850;8.938;2023-04-01T01:45:52;12.50;;;11.90;;
7587;SDS011;3835;48.850;8.938;2023-04-01T01:48:22;11.63;;;11.13;;
7587;SDS011;3835;48.850;8.938;2023-04-01T01:50:52;11.37;;;10.87;;
7587;SDS011;3835;48.850;8.938;2023-04-01T01:53:20;10.97;;;10.50;;
7587;SDS011;3835;48.850;8.938;2023-04-01T01:55:48;10.17;;;9.67;;
7587;SDS011;3835;48.850;8.938;2023-04-01T01:58:17;10.93;;;10.43;;
7587;SDS011;3835;48.850;8.938;2023-04-01T02:00:50;10.37;;;9.77;;
7587;SDS011;3835;48.850;8.938;2023-04-01T02:03:20;10.57;;;10.00;;
7587;SDS011;3835;48.850;8.938;2023-04-01T02:05:50;12.60;;;12.00;;
7587;SDS011;3835;48.850;8.938;2023-04-01T02:08:22;12.03;;;11.30;;
7587;SDS011;3835;48.850;8.938;2023-04-01T02:10:55;11.70;;;11.03;;
7587;SDS011;3835;48.850;8.938;2023-04-01T02:13:27;10.43;;;9.73;;
7587;SDS011;3835;48.850;8.938;2023-04-01T02:16:02;10.47;;;9.87;;
7587;SDS011;3835;48.850;8.938;2023-04-01T02:18:34;11.07;;;10.57;;
7587;SDS011;3835;48.850;8.938;2023-04-01T02:21:05;10.40;;;9.93;;
7587;SDS011;3835;48.850;8.938;2023-04-01T02:23:35;10.67;;;10.10;;
7587;SDS011;3835;48.850;8.938;2023-04-01T02:26:05;9.90;;;9.50;;
7587;SDS011;3835;48.850;8.938;2023-04-01T02:28:35;11.07;;;10.47;;
7587;SDS011;3835;48.850;8.938;2023-04-01T02:31:05;12.00;;;11.40;;
7587;SDS011;3835;48.850;8.938;2023-04-01T02:33:35;10.87;;;10.20;;
7587;SDS011;3835;48.850;8.938;2023-04-01T02:36:07;10.53;;;10.03;;
7587;SDS011;3835;48.850;8.938;2023-04-01T02:38:38;10.63;;;10.23;;
7587;SDS011;3835;48.850;8.938;2023-04-01T02:41:08;10.17;;;9.73;;
7587;SDS011;3835;48.850;8.938;2023-04-01T02:43:35;10.80;;;10.30;;
7587;SDS011;3835;48.850;8.938;2023-04-01T02:46:02;11.63;;;11.03;;
7587;SDS011;3835;48.850;8.938;2023-04-01T02:48:28;12.67;;;12.10;;
7587;SDS011;3835;48.850;8.938;2023-04-01T02:50:55;10.40;;;9.90;;
7587;SDS011;3835;48.850;8.938;2023-04-01T02:53:23;10.00;;;9.47;;
7587;SDS011;3835;48.850;8.938;2023-04-01T02:55:50;10.73;;;10.13;;
7587;SDS011;3835;48.850;8.938;2023-04-01T02:58:17;10.80;;;10.33;;
7587;SDS011;3835;48.850;8.938;2023-04-01T03:00:45;11.07;;;10.50;;
7587;SDS011;3835;48.850;8.938;2023-04-01T03:03:12;10.57;;;10.03;;
7587;SDS011;3835;48.850;8.938;2023-04-01T03:05:40;11.43;;;10.63;;
7587;SDS011;3835;48.850;8.938;2023-04-01T03:08:09;10.33;;;9.80;;
7587;SDS011;3835;48.850;8.938;2023-04-01T03:10:40;11.67;;;10.80;;
7587;SDS011;3835;48.850;8.938;2023-04-01T03:13:07;10.90;;;10.37;;
7587;SDS011;3835;48.850;8.938;2023-04-01T03:15:34;11.27;;;10.77;;
7587;SDS011;3835;48.850;8.938;2023-04-01T03:18:01;11.47;;;10.80;;
7587;SDS011;3835;48.850;8.938;2023-04-01T03:20:28;11.00;;;10.50;;
7587;SDS011;3835;48.850;8.938;2023-04-01T03:22:54;11.33;;;10.73;;
7587;SDS011;3835;48.850;8.938;2023-04-01T03:25:22;11.23;;;10.60;;
7587;SDS011;3835;48.850;8.938;2023-04-01T03:27:50;12.43;;;11.83;;
7587;SDS011;3835;48.850;8.938;2023-04-01T03:30:17;11.30;;;10.60;;
7587;SDS011;3835;48.850;8.938;2023-04-01T03:32:43;11.40;;;10.83;;
7587;SDS011;3835;48.850;8.938;2023-04-01T03:35:10;12.47;;;11.77;;
7587;SDS011;3835;48.850;8.938;2023-04-01T03:37:37;11.33;;;10.87;;
7587;SDS011;3835;48.850;8.938;2023-04-01T03:40:05;11.13;;;10.63;;
7587;SDS011;3835;48.850;8.938;2023-04-01T03:42:32;11.90;;;11.50;;
7587;SDS011;3835;48.850;8.938;2023-04-01T03:45:00;11.53;;;11.03;;
7587;SDS011;3835;48.850;8.938;2023-04-01T03:47:27;11.23;;;10.73;;
7587;SDS011;3835;48.850;8.938;2023-04-01T03:49:54;11.47;;;10.87;;
7587;SDS011;3835;48.850;8.938;2023-04-01T03:52:21;10.87;;;10.37;;
7587;SDS011;3835;48.850;8.938;2023-04-01T03:54:48;9.73;;;9.33;;
7587;SDS011;3835;48.850;8.938;2023-04-01T03:57:15;10.97;;;10.47;;
7587;SDS011;3835;48.850;8.938;2023-04-01T03:59:41;10.80;;;10.30;;
7587;SDS011;3835;48.850;8.938;2023-04-01T04:02:10;11.87;;;11.40;;
7587;SDS011;3835;48.850;8.938;2023-04-01T04:04:36;11.60;;;10.93;;
7587;SDS011;3835;48.850;8.938;2023-04-01T04:07:03;11.00;;;10.40;;
7587;SDS011;3835;48.850;8.938;2023-04-01T04:09:30;10.87;;;10.37;;
7587;SDS011;3835;48.850;8.938;2023-04-01T04:11:58;10.67;;;10.27;;
7587;SDS011;3835;48.850;8.938;2023-04-01T04:14:25;11.50;;;11.00;;
7587;SDS011;3835;48.850;8.938;2023-04-01T04:16:52;11.87;;;11.27;;
7587;SDS011;3835;48.850;8.938;2023-04-01T04:19:20;11.20;;;10.80;;
7587;SDS011;3835;48.850;8.938;2023-04-01T04:21:46;10.97;;;10.40;;
7587;SDS011;3835;48.850;8.938;2023-04-01T04:24:13;13.27;;;12.53;;
7587;SDS011;3835;48.850;8.938;2023-04-01T04:26:40;11.67;;;11.20;;
7587;SDS011;3835;48.850;8.938;2023-04-01T04:29:07;12.00;;;11.50;;
7587;SDS011;3835;48.850;8.938;2023-04-01T04:31:33;10.87;;;10.37;;
7587;SDS011;3835;48.850;8.938;2023-04-01T04:34:00;12.07;;;11.57;;
7587;SDS011;3835;48.850;8.938;2023-04-01T04:36:28;12.33;;;11.73;;
7587;SDS011;3835;48.850;8.938;2023-04-01T04:38:55;12.70;;;11.90;;
7587;SDS011;3835;48.850;8.938;2023-04-01T04:41:23;12.90;;;12.20;;
7587;SDS011;3835;48.850;8.938;2023-04-01T04:43:51;10.37;;;9.83;;
7587;SDS011;3835;48.850;8.938;2023-04-01T04:46:19;11.83;;;11.13;;
7587;SDS011;3835;48.850;8.938;2023-04-01T04:48:46;11.17;;;10.57;;
7587;SDS011;3835;48.850;8.938;2023-04-01T04:51:14;12.97;;;12.23;;
7587;SDS011;3835;48.850;8.938;2023-04-01T04:53:42;11.40;;;11.00;;
7587;SDS011;3835;48.850;8.938;2023-04-01T04:56:09;11.93;;;11.30;;
7587;SDS011;3835;48.850;8.938;2023-04-01T04:58:36;11.70;;;11.27;;
7587;SDS011;3835;48.850;8.938;2023-04-01T05:01:07;10.60;;;10.10;;
7587;SDS011;3835;48.850;8.938;2023-04-01T05:03:35;11.47;;;10.80;;
7587;SDS011;3835;48.850;8.938;2023-04-01T05:06:03;10.87;;;10.40;;
7587;SDS011;3835;48.850;8.938;2023-04-01T05:08:30;11.13;;;10.70;;
7587;SDS011;3835;48.850;8.938;2023-04-01T05:10:59;11.23;;;10.73;;
7587;SDS011;3835;48.850;8.938;2023-04-01T05:13:26;11.27;;;10.67;;
7587;SDS011;3835;48.850;8.938;2023-04-01T05:15:52;11.40;;;10.90;;
7587;SDS011;3835;48.850;8.938;2023-04-01T05:18:19;11.03;;;10.53;;
7587;SDS011;3835;48.850;8.938;2023-04-01T05:20:46;10.80;;;10.20;;
7587;SDS011;3835;48.850;8.938;2023-04-01T05:23:14;11.67;;;11.13;;
7587;SDS011;3835;48.850;8.938;2023-04-01T05:25:41;11.13;;;10.73;;
7587;SDS011;3835;48.850;8.938;2023-04-01T05:28:09;11.90;;;11.07;;
7587;SDS011;3835;48.850;8.938;2023-04-01T05:30:36;11.40;;;10.80;;
7587;SDS011;3835;48.850;8.938;2023-04-01T05:33:06;11.60;;;10.80;;
7587;SDS011;3835;48.850;8.938;2023-04-01T05:35:33;12.30;;;11.47;;
7587;SDS011;3835;48.850;8.938;2023-04-01T05:38:00;11.67;;;11.07;;
7587;SDS011;3835;48.850;8.938;2023-04-01T05:40:27;11.23;;;10.60;;
7587;SDS011;3835;48.850;8.938;2023-04-01T05:42:54;12.20;;;11.70;;
7587;SDS011;3835;48.850;8.938;2023-04-01T05:45:22;11.57;;;10.97;;
7587;SDS011;3835;48.850;8.938;2023-04-01T05:47:49;11.27;;;10.67;;
7587;SDS011;3835;48.850;8.938;2023-04-01T05:50:16;10.63;;;10.10;;
7587;SDS011;3835;48.850;8.938;2023-04-01T05:52:43;10.93;;;10.33;;
7587;SDS011;3835;48.850;8.938;2023-04-01T05:55:10;11.10;;;10.60;;
7587;SDS011;3835;48.850;8.938;2023-04-01T05:57:37;11.43;;;10.83;;
7587;SDS011;3835;48.850;8.938;2023-04-01T06:00:04;11.30;;;10.53;;
7587;SDS011;3835;48.850;8.938;2023-04-01T06:02:33;11.53;;;10.87;;
7587;SDS011;3835;48.850;8.938;2023-04-01T06:05:02;10.77;;;10.13;;
7587;SDS011;3835;48.850;8.938;2023-04-01T06:07:37;11.07;;;10.57;;
7587;SDS011;3835;48.850;8.938;2023-04-01T06:10:08;11.80;;;11.20;;
7587;SDS011;3835;48.850;8.938;2023-04-01T06:12:45;12.57;;;11.97;;
7587;SDS011;3835;48.850;8.938;2023-04-01T06:15:20;11.13;;;10.63;;
7587;SDS011;3835;48.850;8.938;2023-04-01T06:18:01;10.90;;;10.50;;
7587;SDS011;3835;48.850;8.938;2023-04-01T06:20:42;10.57;;;10.10;;
7587;SDS011;3835;48.850;8.938;2023-04-01T06:23:16;12.23;;;11.73;;
7587;SDS011;3835;48.850;8.938;2023-04-01T06:26:05;13.73;;;13.00;;
7587;SDS011;3835;48.850;8.938;2023-04-01T06:29:03;12.50;;;12.00;;
7587;SDS011;3835;48.850;8.938;2023-04-01T06:31:48;11.83;;;11.23;;
7587;SDS011;3835;48.850;8.938;2023-04-01T06:37:36;11.33;;;10.83;;
7587;SDS011;3835;48.850;8.938;2023-04-01T06:43:21;11.53;;;10.93;;
7587;SDS011;3835;48.850;8.938;2023-04-01T06:45:55;11.10;;;10.57;;
7587;SDS011;3835;48.850;8.938;2023-04-01T06:48:33;12.07;;;11.47;;
7587;SDS011;3835;48.850;8.938;2023-04-01T06:51:23;11.57;;;11.07;;
7587;SDS011;3835;48.850;8.938;2023-04-01T06:53:58;10.37;;;9.97;;
7587;SDS011;3835;48.850;8.938;2023-04-01T06:56:30;11.83;;;11.33;;
7587;SDS011;3835;48.850;8.938;2023-04-01T06:59:00;12.03;;;11.53;;
7587;SDS011;3835;48.850;8.938;2023-04-01T07:01:32;12.80;;;12.30;;
7587;SDS011;3835;48.850;8.938;2023-04-01T07:04:05;12.87;;;12.10;;
7587;SDS011;3835;48.850;8.938;2023-04-01T07:06:37;12.97;;;12.47;;
7587;SDS011;3835;48.850;8.938;2023-04-01T07:09:10;13.27;;;12.57;;
7587;SDS011;3835;48.850;8.938;2023-04-01T07:11:40;13.63;;;13.13;;
7587;SDS011;3835;48.850;8.938;2023-04-01T07:14:09;12.90;;;12.40;;
7587;SDS011;3835;48.850;8.938;2023-04-01T07:16:43;11.93;;;11.33;;
7587;SDS011;3835;48.850;8.938;2023-04-01T07:19:14;11.17;;;10.67;;
7587;SDS011;3835;48.850;8.938;2023-04-01T07:21:48;12.03;;;11.43;;
7587;SDS011;3835;48.850;8.938;2023-04-01T07:24:21;10.73;;;10.33;;
7587;SDS011;3835;48.850;8.938;2023-04-01T07:26:52;11.40;;;10.90;;
7587;SDS011;3835;48.850;8.938;2023-04-01T07:29:21;10.67;;;10.23;;
7587;SDS011;3835;48.850;8.938;2023-04-01T07:32:07;11.67;;;11.13;;
7587;SDS011;3835;48.850;8.938;2023-04-01T07:34:44;12.07;;;11.57;;
7587;SDS011;3835;48.850;8.938;2023-04-01T07:37:22;12.60;;;12.00;;
7587;SDS011;3835;48.850;8.938;2023-04-01T07:39:56;11.83;;;11.33;;
7587;SDS011;3835;48.850;8.938;2023-04-01T07:42:32;11.63;;;11.13;;
7587;SDS011;3835;48.850;8.938;2023-04-01T07:45:08;12.03;;;11.53;;
7587;SDS011;3835;48.850;8.938;2023-04-01T07:47:42;11.70;;;11.20;;
7587;SDS011;3835;48.850;8.938;2023-04-01T07:50:25;10.93;;;10.53;;
7587;SDS011;3835;48.850;8.938;2023-04-01T07:52:58;11.83;;;11.33;;
7587;SDS011;3835;48.850;8.938;2023-04-01T07:55:35;17.27;;;16.60;;
7587;SDS011;3835;48.850;8.938;2023-04-01T07:58:10;11.53;;;11.03;;
7587;SDS011;3835;48.850;8.938;2023-04-01T08:00:45;11.63;;;10.93;;
7587;SDS011;3835;48.850;8.938;2023-04-01T08:03:21;11.60;;;11.10;;
7587;SDS011;3835;48.850;8.938;2023-04-01T08:06:03;11.50;;;11.00;;
7587;SDS011;3835;48.850;8.938;2023-04-01T08:08:43;11.43;;;10.90;;
7587;SDS011;3835;48.850;8.938;2023-04-01T08:11:22;12.53;;;12.03;;
7587;SDS011;3835;48.850;8.938;2023-04-01T08:14:00;11.17;;;10.73;;
7587;SDS011;3835;48.850;8.938;2023-04-01T08:16:35;12.20;;;11.70;;
7587;SDS011;3835;48.850;8.938;2023-04-01T08:19:14;11.47;;;10.97;;
7587;SDS011;3835;48.850;8.938;2023-04-01T08:21:49;11.87;;;11.37;;
7587;SDS011;3835;48.850;8.938;2023-04-01T08:24:22;12.33;;;11.83;;
7587;SDS011;3835;48.850;8.938;2023-04-01T08:26:55;10.53;;;10.13;;
7587;SDS011;3835;48.850;8.938;2023-04-01T08:29:26;11.67;;;11.17;;
7587;SDS011;3835;48.850;8.938;2023-04-01T08:32:01;11.23;;;10.73;;
7587;SDS011;3835;48.850;8.938;2023-04-01T08:34:34;11.93;;;11.43;;
7587;SDS011;3835;48.850;8.938;2023-04-01T08:37:07;13.27;;;12.63;;
7587;SDS011;3835;48.850;8.938;2023-04-01T08:39:40;12.60;;;11.83;;
7587;SDS011;3835;48.850;8.938;2023-04-01T08:45:15;10.10;;;9.70;;
7587;SDS011;3835;48.850;8.938;2023-04-01T08:47:56;12.53;;;11.93;;
7587;SDS011;3835;48.850;8.938;2023-04-01T08:50:55;12.43;;;11.93;;
7587;SDS011;3835;48.850;8.938;2023-04-01T08:53:39;12.60;;;12.10;;
7587;SDS011;3835;48.850;8.938;2023-04-01T08:56:25;13.50;;;13.00;;
7587;SDS011;3835;48.850;8.938;2023-04-01T08:59:04;13.30;;;12.80;;
7587;SDS011;3835;48.850;8.938;2023-04-01T09:01:55;12.37;;;11.83;;
7587;SDS011;3835;48.850;8.938;2023-04-01T09:04:42;11.87;;;11.47;;
7587;SDS011;3835;48.850;8.938;2023-04-01T09:07:29;10.70;;;10.30;;
7587;SDS011;3835;48.850;8.938;2023-04-01T09:13:17;12.07;;;11.47;;
7587;SDS011;3835;48.850;8.938;2023-04-01T09:15:59;11.17;;;10.77;;
7587;SDS011;3835;48.850;8.938;2023-04-01T09:21:46;10.77;;;10.37;;
7587;SDS011;3835;48.850;8.938;2023-04-01T09:24:44;11.50;;;11.00;;
7587;SDS011;3835;48.850;8.938;2023-04-01T09:27:26;12.03;;;11.53;;
7587;SDS011;3835;48.850;8.938;2023-04-01T09:33:22;10.80;;;10.33;;
7587;SDS011;3835;48.850;8.938;2023-04-01T09:36:28;11.70;;;11.20;;
7587;SDS011;3835;48.850;8.938;2023-04-01T09:39:11;12.63;;;12.03;;
7587;SDS011;3835;48.850;8.938;2023-04-01T09:41:52;11.33;;;10.83;;
7587;SDS011;3835;48.850;8.938;2023-04-01T09:44:33;12.23;;;11.63;;
7587;SDS011;3835;48.850;8.938;2023-04-01T09:47:05;12.33;;;11.73;;
7587;SDS011;3835;48.850;8.938;2023-04-01T09:52:44;11.43;;;10.93;;
7587;SDS011;3835;48.850;8.938;2023-04-01T09:55:30;11.47;;;10.97;;
7587;SDS011;3835;48.850;8.938;2023-04-01T10:04:16;11.53;;;11.03;;
7587;SDS011;3835;48.850;8.938;2023-04-01T10:07:19;12.43;;;11.93;;
7587;SDS011;3835;48.850;8.938;2023-04-01T10:10:29;11.00;;;10.60;;
7587;SDS011;3835;48.850;8.938;2023-04-01T10:19:20;12.43;;;11.93;;
7587;SDS011;3835;48.850;8.938;2023-04-01T10:22:11;12.77;;;12.27;;
7587;SDS011;3835;48.850;8.938;2023-04-01T10:24:54;14.60;;;14.00;;
7587;SDS011;3835;48.850;8.938;2023-04-01T10:30:56;12.33;;;11.87;;
7587;SDS011;3835;48.850;8.938;2023-04-01T10:33:51;12.37;;;11.93;;
7587;SDS011;3835;48.850;8.938;2023-04-01T10:39:32;10.97;;;10.57;;
7587;SDS011;3835;48.850;8.938;2023-04-01T10:54:42;10.77;;;10.37;;
7587;SDS011;3835;48.850;8.938;2023-04-01T10:57:17;11.70;;;11.30;;
7587;SDS011;3835;48.850;8.938;2023-04-01T11:00:16;11.73;;;11.33;;
7587;SDS011;3835;48.850;8.938;2023-04-01T11:15:39;11.40;;;11.00;;
7587;SDS011;3835;48.850;8.938;2023-04-01T11:18:49;11.53;;;11.13;;
7587;SDS011;3835;48.850;8.938;2023-04-01T11:21:46;11.53;;;11.13;;
7587;SDS011;3835;48.850;8.938;2023-04-01T11:24:26;12.57;;;12.07;;
7587;SDS011;3835;48.850;8.938;2023-04-01T11:27:10;11.80;;;11.40;;
7587;SDS011;3835;48.850;8.938;2023-04-01T11:30:02;12.27;;;11.70;;
7587;SDS011;3835;48.850;8.938;2023-04-01T11:32:42;10.50;;;10.10;;
7587;SDS011;3835;48.850;8.938;2023-04-01T11:35:28;13.17;;;12.67;;
7587;SDS011;3835;48.850;8.938;2023-04-01T11:38:17;10.30;;;9.90;;
7587;SDS011;3835;48.850;8.938;2023-04-01T11:40:51;12.53;;;12.03;;
7587;SDS011;3835;48.850;8.938;2023-04-01T11:43:27;11.17;;;10.77;;
7587;SDS011;3835;48.850;8.938;2023-04-01T11:46:02;15.57;;;14.87;;
7587;SDS011;3835;48.850;8.938;2023-04-01T11:48:50;11.63;;;11.23;;
7587;SDS011;3835;48.850;8.938;2023-04-01T11:51:30;10.50;;;10.10;;
7587;SDS011;3835;48.850;8.938;2023-04-01T11:54:25;11.83;;;11.43;;
7587;SDS011;3835;48.850;8.938;2023-04-01T11:57:07;10.87;;;10.47;;
7587;SDS011;3835;48.850;8.938;2023-04-01T12:00:03;10.10;;;9.70;;
7587;SDS011;3835;48.850;8.938;2023-04-01T12:02:44;11.50;;;11.00;;
7587;SDS011;3835;48.850;8.938;2023-04-01T12:05:29;11.37;;;10.97;;
7587;SDS011;3835;48.850;8.938;2023-04-01T12:08:10;11.33;;;10.93;;
7587;SDS011;3835;48.850;8.938;2023-04-01T12:10:45;11.90;;;11.50;;
7587;SDS011;3835;48.850;8.938;2023-04-01T12:13:21;12.67;;;12.17;;
7587;SDS011;3835;48.850;8.938;2023-04-01T12:16:02;11.17;;;10.77;;
7587;SDS011;3835;48.850;8.938;2023-04-01T12:18:40;12.17;;;11.77;;
7587;SDS011;3835;48.850;8.938;2023-04-01T12:21:17;13.33;;;12.73;;
7587;SDS011;3835;48.850;8.938;2023-04-01T12:23:56;12.23;;;11.83;;
7587;SDS011;3835;48.850;8.938;2023-04-01T12:26:56;11.53;;;11.13;;
7587;SDS011;3835;48.850;8.938;2023-04-01T12:29:43;11.03;;;10.63;;
7587;SDS011;3835;48.850;8.938;2023-04-01T12:32:22;11.53;;;11.03;;
7587;SDS011;3835;48.850;8.938;2023-04-01T12:35:01;11.30;;;10.90;;
7587;SDS011;3835;48.850;8.938;2023-04-01T12:37:45;12.47;;;11.97;;
7587;SDS011;3835;48.850;8.938;2023-04-01T12:40:24;11.70;;;11.20;;
7587;SDS011;3835;48.850;8.938;2023-04-01T12:43:19;10.50;;;10.10;;
7587;SDS011;3835;48.850;8.938;2023-04-01T12:45:59;11.23;;;10.83;;
7587;SDS011;3835;48.850;8.938;2023-04-01T12:48:46;11.53;;;11.13;;
7587;SDS011;3835;48.850;8.938;2023-04-01T12:51:39;10.67;;;10.27;;
7587;SDS011;3835;48.850;8.938;2023-04-01T12:54:22;10.03;;;9.63;;
7587;SDS011;3835;48.850;8.938;2023-04-01T12:57:18;11.57;;;11.17;;
7587;SDS011;3835;48.850;8.938;2023-04-01T13:00:03;11.00;;;10.60;;
7587;SDS011;3835;48.850;8.938;2023-04-01T13:02:45;13.73;;;13.23;;
7587;SDS011;3835;48.850;8.938;2023-04-01T13:05:47;12.23;;;11.73;;
7587;SDS011;3835;48.850;8.938;2023-04-01T13:08:30;11.20;;;10.80;;
7587;SDS011;3835;48.850;8.938;2023-04-01T13:11:08;1999.90;;;999.90;;
7587;SDS011;3835;48.850;8.938;2023-04-01T13:13:43;1999.90;;;999.90;;
7587;SDS011;3835;48.850;8.938;2023-04-01T13:16:21;1999.90;;;999.90;;
7587;SDS011;3835;48.850;8.938;2023-04-01T13:18:54;1999.90;;;999.90;;
7587;SDS011;3835;48.850;8.938;2023-04-01T13:21:26;1999.90;;;999.90;;
7587;SDS011;3835;48.850;8.938;2023-04-01T13:24:04;1999.90;;;999.90;;
7587;SDS011;3835;48.850;8.938;2023-04-01T13:26:40;1999.90;;;999.90;;
7587;SDS011;3835;48.850;8.938;2023-04-01T13:29:18;1999.90;;;999.90;;
7587;SDS011;3835;48.850;8.938;2023-04-01T13:31:52;1999.90;;;999.90;;
7587;SDS011;3835;48.850;8.938;2023-04-01T13:34:32;9.87;;;9.47;;
7587;SDS011;3835;48.850;8.938;2023-04-01T13:37:15;10.80;;;10.40;;
7587;SDS011;3835;48.850;8.938;2023-04-01T13:39:56;9.87;;;9.47;;
7587;SDS011;3835;48.850;8.938;2023-04-01T13:42:41;11.37;;;10.97;;
7587;SDS011;3835;48.850;8.938;2023-04-01T13:45:14;10.40;;;10.00;;
7587;SDS011;3835;48.850;8.938;2023-04-01T13:47:50;11.17;;;10.77;;
7587;SDS011;3835;48.850;8.938;2023-04-01T13:50:39;10.30;;;9.90;;
7587;SDS011;3835;48.850;8.938;2023-04-01T13:56:19;10.23;;;9.83;;
7587;SDS011;3835;48.850;8.938;2023-04-01T13:59:02;9.57;;;9.27;;
7587;SDS011;3835;48.850;8.938;2023-04-01T14:01:46;10.37;;;9.97;;
7587;SDS011;3835;48.850;8.938;2023-04-01T14:04:28;10.77;;;10.37;;
7587;SDS011;3835;48.850;8.938;2023-04-01T14:07:23;12.00;;;11.50;;
7587;SDS011;3835;48.850;8.938;2023-04-01T14:10:11;9.97;;;9.57;;
7587;SDS011;3835;48.850;8.938;2023-04-01T14:12:47;10.60;;;10.20;;
7587;SDS011;3835;48.850;8.938;2023-04-01T14:15:35;12.07;;;11.67;;
7587;SDS011;3835;48.850;8.938;2023-04-01T14:18:13;10.17;;;9.77;;
7587;SDS011;3835;48.850;8.938;2023-04-01T14:20:59;11.30;;;10.90;;
7587;SDS011;3835;48.850;8.938;2023-04-01T14:23:57;10.37;;;9.97;;
7587;SDS011;3835;48.850;8.938;2023-04-01T14:26:53;10.50;;;10.10;;
7587;SDS011;3835;48.850;8.938;2023-04-01T14:29:38;10.67;;;10.27;;
7587;SDS011;3835;48.850;8.938;2023-04-01T14:32:15;10.40;;;10.00;;
7587;SDS011;3835;48.850;8.938;2023-04-01T14:34:53;10.30;;;9.90;;
7587;SDS011;3835;48.850;8.938;2023-04-01T14:37:43;10.53;;;10.13;;
7587;SDS011;3835;48.850;8.938;2023-04-01T14:40:27;11.30;;;10.80;;
7587;SDS011;3835;48.850;8.938;2023-04-01T14:43:10;11.13;;;10.63;;
7587;SDS011;3835;48.850;8.938;2023-04-01T14:45:57;12.17;;;11.47;;
7587;SDS011;3835;48.850;8.938;2023-04-01T14:48:48;10.87;;;10.47;;
7587;SDS011;3835;48.850;8.938;2023-04-01T14:51:18;11.07;;;10.57;;
7587;SDS011;3835;48.850;8.938;2023-04-01T14:53:53;10.10;;;9.70;;
7587;SDS011;3835;48.850;8.938;2023-04-01T14:59:14;11.67;;;11.27;;
7587;SDS011;3835;48.850;8.938;2023-04-01T15:01:55;12.23;;;11.73;;
7587;SDS011;3835;48.850;8.938;2023-04-01T15:10:43;11.07;;;10.57;;
7587;SDS011;3835;48.850;8.938;2023-04-01T15:13:45;10.33;;;9.93;;
7587;SDS011;3835;48.850;8.938;2023-04-01T15:16:21;11.33;;;10.83;;
7587;SDS011;3835;48.850;8.938;2023-04-01T15:18:56;10.20;;;9.80;;
7587;SDS011;3835;48.850;8.938;2023-04-01T15:21:33;11.63;;;11.20;;
7587;SDS011;3835;48.850;8.938;2023-04-01T15:24:11;11.37;;;10.97;;
7587;SDS011;3835;48.850;8.938;2023-04-01T15:26:49;10.57;;;10.17;;
7587;SDS011;3835;48.850;8.938;2023-04-01T15:29:30;9.63;;;9.23;;
7587;SDS011;3835;48.850;8.938;2023-04-01T15:32:07;10.53;;;10.03;;
7587;SDS011;3835;48.850;8.938;2023-04-01T15:34:45;11.00;;;10.50;;
7587;SDS011;3835;48.850;8.938;2023-04-01T15:37:18;10.43;;;10.03;;
7587;SDS011;3835;48.850;8.938;2023-04-01T15:39:54;10.53;;;10.13;;
7587;SDS011;3835;48.850;8.938;2023-04-01T15:42:35;9.67;;;9.27;;
7587;SDS011;3835;48.850;8.938;2023-04-01T15:45:15;12.60;;;12.10;;
7587;SDS011;3835;48.850;8.938;2023-04-01T15:47:53;12.30;;;11.80;;
7587;SDS011;3835;48.850;8.938;2023-04-01T15:53:24;11.13;;;10.63;;
7587;SDS011;3835;48.850;8.938;2023-04-01T15:56:13;10.77;;;10.27;;
7587;SDS011;3835;48.850;8.938;2023-04-01T15:58:51;10.50;;;10.10;;
7587;SDS011;3835;48.850;8.938;2023-04-01T16:01:34;9.63;;;9.17;;
7587;SDS011;3835;48.850;8.938;2023-04-01T16:04:14;10.97;;;10.57;;
7587;SDS011;3835;48.850;8.938;2023-04-01T16:06:58;10.97;;;10.33;;
7587;SDS011;3835;48.850;8.938;2023-04-01T16:09:35;11.87;;;11.37;;
7587;SDS011;3835;48.850;8.938;2023-04-01T16:12:15;10.93;;;10.53;;
7587;SDS011;3835;48.850;8.938;2023-04-01T16:14:48;11.37;;;10.87;;
7587;SDS011;3835;48.850;8.938;2023-04-01T16:17:31;11.50;;;11.00;;
7587;SDS011;3835;48.850;8.938;2023-04-01T16:20:15;10.90;;;10.40;;
7587;SDS011;3835;48.850;8.938;2023-04-01T16:22:48;11.40;;;10.80;;
7587;SDS011;3835;48.850;8.938;2023-04-01T16:25:24;10.30;;;9.80;;
7587;SDS011;3835;48.850;8.938;2023-04-01T16:27:59;11.67;;;11.17;;
7587;SDS011;3835;48.850;8.938;2023-04-01T16:30:40;10.70;;;10.30;;
7587;SDS011;3835;48.850;8.938;2023-04-01T16:33:12;10.20;;;9.80;;
7587;SDS011;3835;48.850;8.938;2023-04-01T16:35:47;11.13;;;10.63;;
7587;SDS011;3835;48.850;8.938;2023-04-01T16:38:24;10.30;;;9.90;;
7587;SDS011;3835;48.850;8.938;2023-04-01T16:41:01;11.60;;;11.00;;
7587;SDS011;3835;48.850;8.938;2023-04-01T16:43:38;12.83;;;12.33;;
7587;SDS011;3835;48.850;8.938;2023-04-01T16:49:03;11.33;;;10.83;;
7587;SDS011;3835;48.850;8.938;2023-04-01T16:51:44;11.07;;;10.63;;
7587;SDS011;3835;48.850;8.938;2023-04-01T16:54:16;11.27;;;10.77;;
7587;SDS011;3835;48.850;8.938;2023-04-01T16:56:54;11.87;;;11.27;;
7587;SDS011;3835;48.850;8.938;2023-04-01T16:59:22;11.40;;;10.83;;
7587;SDS011;3835;48.850;8.938;2023-04-01T17:01:55;9.67;;;9.17;;
7587;SDS011;3835;48.850;8.938;2023-04-01T17:04:30;10.87;;;10.27;;